Tiptop, Virginia
Current Conditions -  °F | °C
As of 8:15 PM on Monday 20 Oct 2014 (Local Time) from KJFZ Reporting Station
Broken Clouds Broken Clouds  
Wind Chill: 56°   Ceiling: 7500
Heat Index: 56°   Visibility: 10mi
Dew Point: 46°   Wind: 5mph
Humidity: 68%   Direction: 240°WSW
Pressure: 29.99"   Gusts: NA
Location:  37.1608°N, 81.5125°W
Report Text: KJFZ 210015Z AUTO 24004KT 10SM BKN075 BKN110 14/08 A2999 RMK AO2 T01360079
Loading
Personal Weather Stations






























Interactive Weather Map
Tropical Storm Tracking
New forecast layout! Learn more

10-Day Weather Forecast

Advertisements
Track Severe Weather on mobile